Time;durP1;ratioP1;P1;durP2;ratioP2;P2;SDS_P1;SDS_P2;PMS_P1;PMS_P2;Temp;Humidity;BMP_temperature;BMP_pressure;BME280_temperature;BME280_humidity;BME280_pressure;Samples;Min_cycle;Max_cycle;Signal;HPM_P1;HPM_P2
2020/12/21 00:00:12;;;;;;;30.50;16.53;;;;;;;5.13;89.29;101554.63;5075133;28;20036;-69
2020/12/21 00:02:41;;;;;;;29.73;16.48;;;;;;;5.18;89.01;101564.88;5073950;28;20036;-68
2020/12/21 00:05:07;;;;;;;27.25;15.98;;;;;;;5.18;88.94;101565.72;5074956;28;20058;-68
2020/12/21 00:07:33;;;;;;;31.77;17.50;;;;;;;5.19;88.81;101559.47;5074413;28;20032;-68
2020/12/21 00:09:58;;;;;;;25.63;16.45;;;;;;;5.29;88.95;101567.59;5073894;28;20356;-68
2020/12/21 00:12:24;;;;;;;30.90;15.43;;;;;;;5.26;88.79;101565.19;5073978;28;20108;-68
2020/12/21 00:14:49;;;;;;;37.63;17.40;;;;;;;5.28;88.59;101572.06;5073803;28;20036;-68
2020/12/21 00:17:15;;;;;;;28.10;15.20;;;;;;;5.30;88.59;101564.00;5073490;28;20098;-69
2020/12/21 00:19:40;;;;;;;23.60;13.67;;;;;;;5.33;88.55;101553.19;5074702;28;20040;-68
2020/12/21 00:22:05;;;;;;;26.27;13.83;;;;;;;5.37;88.35;101559.13;5073724;28;20040;-69
2020/12/21 00:24:31;;;;;;;21.90;14.43;;;;;;;5.37;88.11;101557.31;5074625;28;20028;-68
2020/12/21 00:26:56;;;;;;;27.77;14.10;;;;;;;5.37;88.15;101557.31;5074294;28;20051;-69
2020/12/21 00:29:21;;;;;;;29.83;14.57;;;;;;;5.34;88.34;101557.56;5073577;28;20126;-68
2020/12/21 00:31:48;;;;;;;27.03;14.33;;;;;;;5.36;88.36;101550.34;5074497;28;20333;-69
2020/12/21 00:34:14;;;;;;;23.38;13.07;;;;;;;5.35;88.38;101540.69;5074525;28;20028;-69
2020/12/21 00:36:41;;;;;;;29.30;15.10;;;;;;;5.28;88.48;101550.03;5073980;28;20051;-69
2020/12/21 00:39:07;;;;;;;30.73;14.73;;;;;;;5.28;88.28;101550.88;5074098;28;20028;-68
2020/12/21 00:41:32;;;;;;;23.15;14.18;;;;;;;5.18;88.57;101543.69;5073289;28;20047;-68
2020/12/21 00:43:58;;;;;;;33.23;14.13;;;;;;;5.19;88.66;101550.69;5073258;28;20044;-69
2020/12/21 00:46:25;;;;;;;36.33;16.30;;;;;;;5.24;88.40;101559.13;5073977;28;20040;-68
2020/12/21 00:48:52;;;;;;;24.75;13.73;;;;;;;5.25;88.60;101545.81;5074045;28;20036;-69
2020/12/21 00:51:17;;;;;;;28.15;15.27;;;;;;;5.19;88.47;101550.69;5073059;28;20025;-68
2020/12/21 00:53:44;;;;;;;29.77;14.07;;;;;;;5.12;88.54;101541.47;5073080;28;20055;-68
2020/12/21 00:56:09;;;;;;;25.55;13.95;;;;;;;5.04;88.76;101536.72;5073798;28;20060;-69
2020/12/21 00:58:36;;;;;;;30.13;15.93;;;;;;;4.95;88.65;101534.72;5073073;28;20071;-68
2020/12/21 01:01:05;;;;;;;28.33;15.52;;;;;;;4.89;88.94;101538.63;5073828;28;20290;-68
2020/12/21 01:03:30;;;;;;;25.95;16.52;;;;;;;4.76;89.14;101537.78;5072766;28;20044;-68
2020/12/21 01:05:56;;;;;;;30.97;17.00;;;;;;;4.72;89.47;101537.16;5073456;28;20059;-68
2020/12/21 01:08:21;;;;;;;30.77;16.70;;;;;;;4.65;89.40;101531.44;5072802;28;20079;-68
2020/12/21 01:10:48;;;;;;;32.38;17.77;;;;;;;4.57;89.63;101532.91;5073864;28;20048;-69
2020/12/21 01:13:13;;;;;;;32.10;18.08;;;;;;;4.52;89.74;101535.00;5073749;28;20039;-68
2020/12/21 01:15:39;;;;;;;25.88;16.15;;;;;;;4.49;89.69;101538.72;5072525;28;20047;-68
2020/12/21 01:18:04;;;;;;;37.03;18.27;;;;;;;4.41;89.95;101541.03;5072686;28;20041;-68
2020/12/21 01:20:29;;;;;;;37.37;18.17;;;;;;;4.34;90.08;101542.41;5073461;28;20028;-69
2020/12/21 01:22:55;;;;;;;34.47;18.37;;;;;;;4.37;90.38;101539.53;5073588;28;20032;-68
2020/12/21 01:25:20;;;;;;;32.17;18.27;;;;;;;4.27;90.31;101543.75;5072553;28;20051;-68
2020/12/21 01:27:45;;;;;;;36.50;18.83;;;;;;;4.30;90.48;101541.75;5072223;28;20036;-69
2020/12/21 01:30:11;;;;;;;34.90;18.43;;;;;;;4.27;90.62;101549.03;5073523;28;20098;-68
2020/12/21 01:32:37;;;;;;;37.58;19.33;;;;;;;4.20;90.44;101546.81;5073346;28;20044;-68
2020/12/21 01:35:02;;;;;;;39.13;17.70;;;;;;;4.16;90.48;101550.59;5073248;28;20039;-68
2020/12/21 01:37:28;;;;;;;34.67;17.27;;;;;;;4.16;90.73;101550.59;5073073;28;20792;-68
2020/12/21 11:10:49;;;;;;;37.75;14.30;;;;;;;5.86;84.19;101555.59;5070615;28;20138;-68
2020/12/21 11:13:14;;;;;;;36.97;14.67;;;;;;;5.90;83.80;101552.63;5071515;28;20052;-70
2020/12/21 11:15:42;;;;;;;22.57;13.93;;;;;;;5.97;83.68;101545.09;5071180;28;20036;-70
2020/12/21 11:18:07;;;;;;;35.25;14.07;;;;;;;6.13;83.02;101543.00;5053811;28;20112;-71
2020/12/21 11:20:33;;;;;;;25.30;12.57;;;;;;;6.15;82.83;101540.22;5070465;28;20068;-70
2020/12/21 11:22:58;;;;;;;27.67;13.47;;;;;;;6.19;82.83;101533.72;5053782;28;20032;-70
2020/12/21 11:25:23;;;;;;;35.80;13.77;;;;;;;6.10;82.77;101531.75;5071267;28;20468;-70
2020/12/21 11:27:48;;;;;;;19.47;10.07;;;;;;;6.16;82.82;101520.72;5071011;28;20461;-70
2020/12/21 11:30:14;;;;;;;29.20;12.07;;;;;;;6.16;82.56;101528.66;5071203;28;20054;-70
2020/12/21 11:32:39;;;;;;;22.03;10.10;;;;;;;6.34;82.29;101535.25;5071130;28;20036;-70
2020/12/21 11:35:06;;;;;;;22.38;11.55;;;;;;;6.79;80.77;101523.00;5070435;28;20061;-70
2020/12/21 11:37:31;;;;;;;19.33;11.23;;;;;;;6.60;80.90;101515.63;5071025;28;20028;-70
2020/12/21 11:39:56;;;;;;;28.03;10.77;;;;;;;6.82;80.49;101514.84;5071152;28;20596;-70
2020/12/21 11:42:22;;;;;;;15.80;9.83;;;;;;;6.62;80.89;101513.72;5071161;28;20036;-70
2020/12/21 11:44:48;;;;;;;25.90;10.87;;;;;;;6.62;80.80;101506.59;5069217;28;20462;-70
2020/12/21 11:47:13;;;;;;;22.00;10.45;;;;;;;6.51;81.00;101501.28;5069861;28;20046;-70
2020/12/21 11:49:39;;;;;;;18.90;9.77;;;;;;;6.49;81.05;101517.31;5070924;28;20098;-70
2020/12/21 11:52:05;;;;;;;33.25;11.52;;;;;;;6.98;79.99;101505.56;5071075;28;20297;-70
2020/12/21 11:54:30;;;;;;;19.30;8.07;;;;;;;7.12;78.35;101508.94;5070056;28;20037;-70
2020/12/21 11:56:56;;;;;;;17.43;8.03;;;;;;;7.23;78.48;101497.44;5069792;28;20044;-70
2020/12/21 11:59:22;;;;;;;25.60;8.48;;;;;;;7.00;78.73;101502.78;5070884;28;20048;-70
2020/12/21 12:01:47;;;;;;;25.87;7.43;;;;;;;7.08;78.63;101502.16;5070012;28;20044;-70
2020/12/21 12:04:12;;;;;;;22.27;7.57;;;;;;;6.84;79.18;101491.69;5070817;28;20045;-70
2020/12/21 12:06:38;;;;;;;22.50;7.27;;;;;;;6.93;79.32;101488.28;5070806;28;20055;-70
2020/12/21 12:09:03;;;;;;;24.20;7.30;;;;;;;6.84;79.33;101484.56;5070863;28;20040;-70
2020/12/21 12:11:28;;;;;;;19.80;6.23;;;;;;;6.93;78.96;101483.84;5069927;28;20101;-70
2020/12/21 12:13:54;;;;;;;20.63;6.87;;;;;;;6.97;78.73;101492.38;5070672;28;20123;-70
2020/12/21 12:16:22;;;;;;;15.97;6.53;;;;;;;6.97;78.64;101485.25;5069727;28;20125;-70
2020/12/21 12:18:47;;;;;;;13.68;4.90;;;;;;;7.27;77.46;101480.31;5070834;28;20033;-70
2020/12/21 12:21:23;;;;;;;12.80;4.67;;;;;;;7.55;76.71;101474.44;5069879;28;20105;-70
2020/12/21 12:23:48;;;;;;;14.23;6.40;;;;;;;7.85;75.89;101474.72;5070884;28;20416;-70
2020/12/21 12:26:17;;;;;;;12.70;6.23;;;;;;;8.01;75.09;101472.47;5070342;28;20040;-70
2020/12/21 12:28:43;;;;;;;17.15;4.28;;;;;;;7.55;75.92;101473.59;5069589;28;20131;-70
2020/12/21 12:31:09;;;;;;;9.93;4.90;;;;;;;7.63;75.76;101471.16;5069688;28;20046;-70
2020/12/21 12:33:34;;;;;;;11.38;4.03;;;;;;;7.86;74.86;101463.94;5052978;28;20611;-70
2020/12/21 12:35:59;;;;;;;13.90;4.93;;;;;;;8.23;73.76;101463.53;5068977;28;20032;-70
2020/12/21 12:38:25;;;;;;;15.20;3.93;;;;;;;8.17;73.57;101448.06;5069376;28;20033;-70
2020/12/21 12:40:50;;;;;;;7.97;4.13;;;;;;;7.46;75.60;101456.59;5069459;28;20090;-70
2020/12/21 12:43:15;;;;;;;17.47;6.30;;;;;;;7.71;75.63;101451.94;5069562;28;20045;-70
2020/12/21 12:45:41;;;;;;;11.80;4.93;;;;;;;7.83;74.61;101459.72;5069593;28;20032;-70
2020/12/21 12:48:06;;;;;;;19.37;4.77;;;;;;;8.01;74.18;101443.22;5070460;28;20102;-70
2020/12/21 12:50:31;;;;;;;8.23;3.63;;;;;;;8.46;73.07;101448.28;5070443;28;20455;-70
2020/12/21 12:52:57;;;;;;;16.37;5.00;;;;;;;8.63;72.38;101453.00;5069507;28;20127;-70
2020/12/21 12:55:22;;;;;;;18.17;4.00;;;;;;;9.01;70.43;101442.63;5070392;28;20436;-70
2020/12/21 12:57:47;;;;;;;11.87;3.73;;;;;;;8.72;71.18;101438.06;5073291;28;20037;-70
2020/12/21 13:00:13;;;;;;;15.17;3.83;;;;;;;8.97;71.47;101433.25;5073327;28;20043;-70
2020/12/21 13:02:38;;;;;;;15.37;5.27;;;;;;;9.44;70.25;101438.84;5056137;28;20051;-70
2020/12/21 13:05:03;;;;;;;12.23;4.70;;;;;;;9.22;69.87;101424.75;5073727;28;20032;-70
2020/12/21 13:07:29;;;;;;;13.57;4.90;;;;;;;8.47;72.10;101417.19;5072281;28;20029;-70
2020/12/21 13:09:54;;;;;;;13.63;5.00;;;;;;;8.71;73.02;101415.09;5071154;28;20047;-70
2020/12/21 13:12:19;;;;;;;15.20;4.53;;;;;;;8.85;71.31;101412.06;5071057;28;20382;-70
2020/12/21 13:14:45;;;;;;;20.93;5.27;;;;;;;8.69;72.47;101419.69;5072385;28;20438;-70
2020/12/21 13:17:10;;;;;;;8.87;4.10;;;;;;;8.55;73.27;101422.72;5072553;28;20476;-70
2020/12/21 13:19:35;;;;;;;13.17;4.90;;;;;;;8.75;71.99;101415.66;5072693;28;20033;-70
2020/12/21 13:22:02;;;;;;;18.93;4.93;;;;;;;8.33;72.59;101416.53;5072735;28;20041;-70
2020/12/21 13:24:27;;;;;;;18.27;5.55;;;;;;;8.49;72.92;101418.75;5073207;28;20044;-70
2020/12/21 13:26:52;;;;;;;12.00;4.27;;;;;;;8.56;71.47;101417.25;5072216;28;20098;-70
2020/12/21 13:29:19;;;;;;;14.40;4.87;;;;;;;8.38;72.39;101414.34;5073282;28;20040;-70
2020/12/21 13:31:46;;;;;;;11.77;5.72;;;;;;;7.62;75.87;101403.03;5073337;28;20072;-70
2020/12/21 13:34:11;;;;;;;12.90;5.38;;;;;;;7.70;75.68;101402.38;5072314;28;20048;-70
2020/12/21 13:36:36;;;;;;;18.83;4.80;;;;;;;7.78;74.35;101399.94;5072127;28;20037;-70
2020/12/21 13:39:02;;;;;;;20.17;4.43;;;;;;;7.49;76.80;101400.56;5072374;28;20043;-70
2020/12/21 13:41:27;;;;;;;14.38;4.95;;;;;;;7.87;75.60;101408.97;5073118;28;20054;-70
2020/12/21 13:43:52;;;;;;;13.63;5.00;;;;;;;7.72;74.93;101405.75;5073148;28;20036;-70
2020/12/21 13:46:18;;;;;;;12.90;5.10;;;;;;;7.78;74.75;101410.56;5072041;28;20052;-70
2020/12/21 13:48:43;;;;;;;16.23;5.25;;;;;;;7.41;77.28;101405.63;5073001;28;20037;-70
2020/12/21 13:51:10;;;;;;;11.57;4.40;;;;;;;7.19;76.11;101399.44;5073180;28;20123;-70
2020/12/21 13:53:36;;;;;;;12.05;4.32;;;;;;;6.88;77.62;101402.84;5070855;28;20032;-70
2020/12/21 13:56:02;;;;;;;10.40;5.43;;;;;;;6.78;78.50;101401.91;5053648;28;20039;-70
2020/12/21 13:58:27;;;;;;;21.23;5.47;;;;;;;6.75;78.14;101401.19;5072861;28;20135;-70
2020/12/21 14:00:52;;;;;;;16.47;5.43;;;;;;;6.46;79.98;101394.66;5071882;28;20488;-70
2020/12/21 14:03:18;;;;;;;12.33;4.67;;;;;;;6.44;79.38;101401.88;5071935;28;20064;-70
2020/12/21 14:05:43;;;;;;;21.60;6.37;;;;;;;6.31;80.24;101418.75;5072639;28;20617;-70
2020/12/21 14:08:08;;;;;;;14.80;5.73;;;;;;;6.33;80.03;101418.66;5071727;28;20064;-70
2020/12/21 14:10:33;;;;;;;20.23;5.00;;;;;;;6.41;79.60;101418.06;5071590;28;20040;-70
2020/12/21 14:12:59;;;;;;;15.27;5.37;;;;;;;6.24;80.00;101404.28;5071564;28;20070;-70
2020/12/21 14:15:24;;;;;;;15.80;5.07;;;;;;;6.32;79.67;101404.56;5072488;28;20029;-70
2020/12/21 14:17:51;;;;;;;12.97;4.90;;;;;;;6.13;80.30;101405.13;5071339;28;20040;-70
2020/12/21 14:20:18;;;;;;;11.43;4.68;;;;;;;6.19;80.08;101409.09;5072463;28;20090;-68
2020/12/21 14:22:43;;;;;;;;;;;;;;;6.08;80.28;101401.13;5072618;28;20032;-68
2020/12/21 14:25:08;;;;;;;;;;;;;;;5.97;80.68;101399.31;5072598;28;19923;-68
2020/12/21 14:27:34;;;;;;;17.57;4.97;;;;;;;5.94;80.97;101394.22;5070619;28;19922;-69
2020/12/21 14:29:59;;;;;;;22.37;5.20;;;;;;;5.81;81.38;101375.75;5071183;28;20049;-69
2020/12/21 14:32:24;;;;;;;12.93;4.03;;;;;;;5.75;81.62;101370.91;5072208;28;20126;-68
2020/12/21 14:34:50;;;;;;;13.70;5.47;;;;;;;5.70;81.82;101368.59;5072144;28;20032;-69
2020/12/21 14:37:15;;;;;;;12.17;4.80;;;;;;;5.60;82.30;101372.91;5070779;28;20032;-68
2020/12/21 14:39:40;;;;;;;12.00;4.97;;;;;;;5.58;82.20;101363.38;5070587;28;20028;-68
2020/12/21 14:42:05;;;;;;;10.93;4.20;;;;;;;5.50;82.36;101361.28;5070020;28;20044;-69
2020/12/21 14:44:31;;;;;;;15.23;4.57;;;;;;;5.48;82.43;101361.41;5071992;28;20040;-68
2020/12/21 14:46:56;;;;;;;13.27;4.33;;;;;;;5.40;82.84;101366.44;5071800;28;20086;-69
2020/12/21 14:49:21;;;;;;;12.33;5.67;;;;;;;5.37;83.08;101355.22;5071860;28;20037;-69
2020/12/21 14:51:51;;;;;;;16.80;5.43;;;;;;;5.37;82.77;101361.38;5070897;28;20101;-68
2020/12/21 14:54:16;;;;;;;13.63;4.28;;;;;;;5.32;83.17;101360.03;5070726;28;20036;-69
2020/12/21 14:56:41;;;;;;;23.87;5.53;;;;;;;5.29;83.17;101353.13;5070525;28;20867;-68
2020/12/21 14:59:07;;;;;;;13.63;5.13;;;;;;;5.33;82.86;101346.66;5070864;28;20450;-69
2020/12/21 15:01:33;;;;;;;15.88;4.70;;;;;;;5.29;82.88;101358.44;5054158;28;20040;-68
2020/12/21 15:03:59;;;;;;;15.43;5.20;;;;;;;5.22;83.05;101351.91;5070543;28;20098;-68
2020/12/21 15:06:25;;;;;;;18.65;5.00;;;;;;;5.19;83.18;101347.69;5071349;28;20036;-68
2020/12/21 15:08:51;;;;;;;14.57;4.97;;;;;;;5.13;83.18;101344.63;5071327;28;20123;-69
2020/12/21 15:11:17;;;;;;;;;;;;;;;5.12;83.07;101335.84;5070963;28;20060;-68
2020/12/21 15:13:42;;;;;;;17.27;6.53;;;;;;;5.03;83.34;101331.22;5070450;28;19967;-69
2020/12/21 15:16:09;;;;;;;17.97;5.70;;;;;;;4.94;83.77;101323.97;5070712;28;20040;-68
2020/12/21 15:18:36;;;;;;;17.02;4.65;;;;;;;4.95;83.65;101330.97;5068929;28;20033;-68
2020/12/21 15:21:05;;;;;;;18.45;4.50;;;;;;;4.91;83.63;101334.78;5071299;28;20086;-69
2020/12/21 15:23:31;;;;;;;10.13;4.07;;;;;;;4.91;84.04;101321.53;5070624;28;20040;-68
2020/12/21 15:25:56;;;;;;;25.33;4.75;;;;;;;4.95;83.86;101334.44;5069478;28;20048;-68
2020/12/21 15:28:23;;;;;;;16.23;4.57;;;;;;;4.94;83.97;101327.47;5070115;28;20072;-68
2020/12/21 15:30:48;;;;;;;15.43;4.78;;;;;;;4.89;83.92;101326.94;5070305;28;20036;-68
2020/12/21 15:33:14;;;;;;;9.90;4.73;;;;;;;4.88;83.93;101333.19;5071062;28;20039;-68
2020/12/21 15:35:39;;;;;;;10.40;4.20;;;;;;;4.82;84.26;101333.63;5070955;28;20274;-69
2020/12/21 15:38:05;;;;;;;14.50;6.17;;;;;;;4.83;84.31;101330.06;5069944;28;20089;-68
2020/12/21 15:40:30;;;;;;;14.00;5.17;;;;;;;4.83;84.12;101332.69;5070097;28;20664;-69
2020/12/21 15:42:56;;;;;;;15.70;4.80;;;;;;;4.85;83.95;101320.22;5071015;28;20085;-68
2020/12/21 15:45:21;;;;;;;18.38;5.18;;;;;;;4.75;84.25;101317.38;5070183;28;20028;-69
2020/12/21 15:47:47;;;;;;;13.35;4.22;;;;;;;4.76;84.46;101308.47;5070706;28;20044;-69
2020/12/21 15:50:12;;;;;;;18.37;5.50;;;;;;;4.79;84.29;101302.13;5070209;28;20123;-68
2020/12/21 15:52:37;;;;;;;15.90;5.10;;;;;;;4.75;84.26;101298.00;5070878;28;20093;-69
2020/12/21 15:55:03;;;;;;;16.47;6.27;;;;;;;4.71;84.48;101297.41;5071020;28;20047;-68
2020/12/21 15:57:28;;;;;;;17.70;5.65;;;;;;;4.73;84.42;101305.19;5070682;28;20040;-68
2020/12/21 15:59:54;;;;;;;15.50;5.60;;;;;;;4.70;84.53;101303.63;5070948;28;20409;-68
2020/12/21 16:02:20;;;;;;;13.90;5.40;;;;;;;4.78;83.94;101297.78;5053216;28;20339;-70
2020/12/21 16:04:46;;;;;;;14.68;6.68;;;;;;;4.77;84.05;101301.38;5070765;28;20048;-70
2020/12/21 16:07:12;;;;;;;11.68;5.95;;;;;;;4.72;83.95;101304.34;5069464;28;20040;-70
2020/12/21 16:09:37;;;;;;;17.30;6.23;;;;;;;4.68;84.05;101291.47;5069871;28;20055;-68
2020/12/21 16:12:03;;;;;;;11.63;5.10;;;;;;;4.72;84.07;101291.13;5070743;28;20028;-68
2020/12/21 16:14:28;;;;;;;15.47;5.97;;;;;;;4.77;83.79;101290.81;5069831;28;20097;-68
2020/12/21 16:16:53;;;;;;;14.03;6.23;;;;;;;4.75;83.73;101290.06;5069652;28;20052;-68
2020/12/21 16:19:18;;;;;;;13.47;5.33;;;;;;;4.72;84.06;101287.66;5070739;28;20028;-69
2020/12/21 16:21:44;;;;;;;14.60;6.67;;;;;;;4.75;83.76;101280.34;5070684;28;20461;-69
2020/12/21 16:24:09;;;;;;;15.37;5.37;;;;;;;4.75;83.70;101277.72;5069729;28;20650;-68
2020/12/21 16:26:34;;;;;;;13.13;4.97;;;;;;;4.83;83.48;101277.13;5069416;28;20071;-68
2020/12/21 16:29:00;;;;;;;9.17;4.90;;;;;;;4.89;82.98;101267.88;5070572;28;20040;-68
2020/12/21 16:31:25;;;;;;;16.63;5.97;;;;;;;4.89;82.95;101273.19;5070980;28;20033;-68
2020/12/21 16:33:51;;;;;;;11.23;5.47;;;;;;;4.92;82.78;101265.03;5073425;28;20032;-68
2020/12/21 16:36:16;;;;;;;16.10;5.93;;;;;;;4.89;82.83;101255.50;5072947;28;20036;-68
2020/12/21 16:38:41;;;;;;;17.73;5.43;;;;;;;4.89;82.94;101258.16;5074208;28;20036;-68
2020/12/21 16:41:20;;;;;;;9.93;5.23;;;;;;;4.93;82.92;101270.19;5073199;28;20036;-68
2020/12/21 16:43:46;;;;;;;19.42;6.30;;;;;;;4.92;82.88;101247.34;5074212;28;20076;-68
2020/12/21 16:46:11;;;;;;;12.75;5.40;;;;;;;4.88;82.93;101237.94;5073041;28;20419;-68
2020/12/21 16:48:36;;;;;;;11.43;5.37;;;;;;;4.91;82.93;101228.94;5074039;28;20144;-68
2020/12/21 16:51:02;;;;;;;13.13;5.73;;;;;;;4.90;83.22;101227.25;5073090;28;20056;-68
2020/12/21 16:53:29;;;;;;;13.85;5.47;;;;;;;4.91;82.88;101219.19;5073142;28;20090;-69
2020/12/21 16:55:54;;;;;;;;;;;;;;;4.91;82.98;101215.72;5074125;28;20107;-68
2020/12/21 16:58:19;;;;;;;;;;;;;;;4.93;82.86;101205.84;5074372;28;19961;-68
2020/12/21 17:00:44;;;;;;;14.53;7.13;;;;;;;4.89;83.05;101202.59;5056372;28;19912;-68
2020/12/21 17:03:10;;;;;;;17.17;6.33;;;;;;;4.84;83.24;101199.44;5072718;28;20033;-68
2020/12/21 17:05:35;;;;;;;17.33;5.73;;;;;;;4.84;83.14;101189.69;5072652;28;20051;-68
2020/12/21 17:08:00;;;;;;;13.03;5.90;;;;;;;4.81;83.35;101204.97;5073649;28;20041;-69
2020/12/21 17:10:26;;;;;;;11.77;5.73;;;;;;;4.77;83.42;101188.47;5072749;28;20029;-68
2020/12/21 17:12:52;;;;;;;26.92;7.65;;;;;;;4.79;83.52;101183.06;5072798;28;20044;-68
2020/12/21 17:15:18;;;;;;;20.70;5.97;;;;;;;4.85;83.18;101186.09;5073666;28;20097;-68
2020/12/21 17:17:43;;;;;;;15.80;7.07;;;;;;;4.82;83.02;101178.41;5073328;28;20123;-68
2020/12/21 17:20:09;;;;;;;11.17;5.60;;;;;;;4.79;83.21;101172.50;5073423;28;20393;-68
2020/12/21 17:22:35;;;;;;;17.33;6.10;;;;;;;4.76;83.44;101168.28;5073449;28;20473;-68
2020/12/21 17:25:01;;;;;;;11.95;5.50;;;;;;;4.78;83.40;101165.53;5055840;28;20055;-68
2020/12/21 17:27:26;;;;;;;14.65;6.22;;;;;;;4.75;83.57;101171.03;5073196;28;20169;-68
2020/12/21 17:29:51;;;;;;;11.70;5.67;;;;;;;4.72;83.58;101161.53;5073381;28;20040;-68
2020/12/21 17:32:17;;;;;;;11.13;5.40;;;;;;;4.76;83.49;101159.50;5073333;28;20063;-68
2020/12/21 17:34:42;;;;;;;13.40;6.23;;;;;;;4.79;83.36;101175.13;5072176;28;20036;-68
2020/12/21 17:37:08;;;;;;;12.73;5.57;;;;;;;4.80;83.29;101174.16;5073044;28;20043;-69
2020/12/21 17:39:33;;;;;;;14.35;5.85;;;;;;;4.82;83.11;101169.59;5072155;28;20134;-68
2020/12/21 17:41:59;;;;;;;11.70;5.67;;;;;;;4.76;83.34;101154.22;5072770;28;20040;-69
2020/12/21 17:44:24;;;;;;;10.33;5.90;;;;;;;4.76;83.44;101141.00;5071321;28;20041;-68
2020/12/21 17:46:49;;;;;;;19.00;6.50;;;;;;;4.71;83.56;101137.84;5071885;28;20098;-68
2020/12/21 17:49:15;;;;;;;14.57;6.97;;;;;;;4.72;83.45;101137.72;5071819;28;20473;-68
2020/12/21 17:51:41;;;;;;;13.50;7.80;;;;;;;4.68;83.77;101143.34;5072111;28;20779;-68
2020/12/21 17:54:07;;;;;;;;;;;;;;;4.67;83.81;101137.22;5073317;28;20040;-68
2020/12/21 17:56:32;;;;;;;;;;;;;;;4.63;84.02;101136.59;5073100;28;19916;-70
2020/12/21 17:58:57;;;;;;;12.27;5.40;;;;;;;4.63;84.03;101131.31;5071963;28;19916;-70
2020/12/21 18:01:23;;;;;;;14.83;6.40;;;;;;;4.65;84.02;101121.47;5072864;28;20450;-70
2020/12/21 18:03:48;;;;;;;14.40;5.90;;;;;;;4.69;83.66;101116.78;5072465;28;20059;-70
2020/12/21 18:06:13;;;;;;;16.23;6.17;;;;;;;4.72;83.63;101115.72;5072429;28;20133;-70
2020/12/21 18:08:39;;;;;;;11.73;6.47;;;;;;;4.67;83.73;101112.59;5072433;28;20036;-70
2020/12/21 18:11:05;;;;;;;16.17;7.63;;;;;;;4.67;83.78;101104.66;5071560;28;20036;-70
2020/12/21 18:13:31;;;;;;;14.63;5.78;;;;;;;4.69;83.68;101115.97;5072448;28;20048;-70
2020/12/21 18:15:56;;;;;;;10.77;5.87;;;;;;;4.69;83.93;101108.03;5071185;28;20060;-70
2020/12/21 18:18:21;;;;;;;14.00;6.43;;;;;;;4.68;83.72;101103.66;5054964;28;20033;-70
2020/12/21 18:20:47;;;;;;;15.77;6.43;;;;;;;4.64;84.03;101105.72;5072344;28;20130;-70
2020/12/21 18:23:12;;;;;;;13.90;5.93;;;;;;;4.71;83.99;101100.81;5072337;28;20369;-70
2020/12/21 18:25:37;;;;;;;13.30;5.63;;;;;;;4.65;83.91;101100.28;5072116;28;20461;-70
2020/12/21 18:28:03;;;;;;;13.30;6.37;;;;;;;4.65;84.18;101097.66;5072116;28;20339;-70
2020/12/21 18:30:28;;;;;;;19.33;7.03;;;;;;;4.63;84.15;101093.44;5072249;28;20686;-70
2020/12/21 18:32:55;;;;;;;13.70;6.03;;;;;;;4.68;84.23;101086.00;5072014;28;20453;-70
2020/12/21 18:35:20;;;;;;;15.00;6.72;;;;;;;4.68;84.26;101078.06;5072117;28;20087;-70
2020/12/21 18:37:46;;;;;;;11.27;5.73;;;;;;;4.68;83.94;101077.22;5070822;28;20068;-68
2020/12/21 18:40:11;;;;;;;12.63;5.73;;;;;;;4.68;83.93;101069.28;5071040;28;20036;-68
2020/12/21 18:42:37;;;;;;;12.80;6.90;;;;;;;4.65;84.34;101054.50;5071969;28;20476;-68
2020/12/21 18:45:03;;;;;;;17.13;6.50;;;;;;;4.65;84.33;101054.50;5071007;28;20314;-69
2020/12/21 18:47:31;;;;;;;16.98;6.88;;;;;;;4.71;84.07;101045.28;5071536;28;20036;-68
2020/12/21 18:49:58;;;;;;;16.08;5.60;;;;;;;4.70;84.12;101049.69;5071597;28;20137;-68
2020/12/21 18:52:24;;;;;;;12.93;6.78;;;;;;;4.67;84.05;101041.16;5070797;28;20032;-68
2020/12/21 18:54:49;;;;;;;20.88;8.65;;;;;;;4.70;84.09;101038.28;5071288;28;20044;-68
2020/12/21 18:57:14;;;;;;;12.63;6.40;;;;;;;4.67;84.23;101036.72;5070672;28;20437;-69
2020/12/21 18:59:40;;;;;;;12.43;5.60;;;;;;;4.68;84.47;101022.53;5070722;28;20037;-68
2020/12/21 19:02:05;;;;;;;20.67;6.37;;;;;;;4.69;84.39;101012.81;5070556;28;20033;-68
2020/12/21 19:04:31;;;;;;;18.73;6.60;;;;;;;4.75;83.98;101010.53;5071417;28;20114;-68
2020/12/21 19:06:58;;;;;;;15.98;8.45;;;;;;;4.77;83.92;101026.25;5071249;28;20032;-68
2020/12/21 19:09:23;;;;;;;15.32;6.22;;;;;;;4.78;83.83;101020.88;5071297;28;20047;-68
2020/12/21 19:11:50;;;;;;;18.00;7.20;;;;;;;4.77;83.91;101018.34;5070457;28;20033;-68
2020/12/21 19:14:15;;;;;;;15.98;6.03;;;;;;;4.75;84.00;101001.72;5071325;28;20082;-68
2020/12/21 19:16:41;;;;;;;13.67;5.83;;;;;;;4.79;84.01;100987.31;5070087;28;20063;-68
2020/12/21 19:19:06;;;;;;;13.03;6.20;;;;;;;4.78;83.75;100980.34;5071330;28;20028;-68
2020/12/21 19:21:32;;;;;;;20.50;8.27;;;;;;;4.77;83.76;100973.38;5070275;28;20089;-68
2020/12/21 19:23:57;;;;;;;16.47;7.97;;;;;;;4.79;83.83;100966.16;5070324;28;20041;-68
2020/12/21 19:26:22;;;;;;;14.93;6.87;;;;;;;4.80;83.70;100967.81;5070078;28;20028;-68
2020/12/21 19:28:48;;;;;;;17.23;6.47;;;;;;;4.81;83.86;100966.88;5071081;28;20496;-68
2020/12/21 19:31:15;;;;;;;12.70;5.40;;;;;;;4.75;84.04;100948.81;5071277;28;20047;-68
2020/12/21 19:33:40;;;;;;;;;;;;;;;4.81;83.89;100965.06;5071424;28;20032;-68
2020/12/21 19:36:07;;;;;;;;;;;;;;;4.79;83.86;100966.16;5070460;28;20364;-69
2020/12/21 19:38:32;;;;;;;10.98;5.35;;;;;;;4.76;83.98;100953.19;5070160;28;19916;-68
2020/12/21 19:40:58;;;;;;;9.67;5.83;;;;;;;4.78;83.95;100948.63;5070301;28;20044;-68
2020/12/21 19:43:24;;;;;;;17.47;5.60;;;;;;;4.78;83.79;100948.63;5070987;28;20036;-69
2020/12/21 19:45:50;;;;;;;15.00;5.88;;;;;;;4.76;84.09;100932.84;5070591;28;20106;-69
2020/12/21 19:48:15;;;;;;;14.23;6.17;;;;;;;4.72;84.69;100927.91;5069626;28;20040;-69
2020/12/21 19:50:41;;;;;;;9.55;5.35;;;;;;;4.72;84.68;100922.63;5070661;28;20041;-69
2020/12/21 19:53:07;;;;;;;13.73;6.37;;;;;;;4.71;84.87;100918.31;5069890;28;20952;-69
2020/12/21 19:55:34;;;;;;;11.15;6.95;;;;;;;4.69;85.00;100925.53;5070766;28;20762;-69
2020/12/21 19:57:59;;;;;;;14.95;6.68;;;;;;;4.70;84.81;100920.09;5070865;28;20033;-69
2020/12/21 20:00:25;;;;;;;11.57;5.13;;;;;;;4.75;84.74;100922.38;5071006;28;20040;-69
2020/12/21 20:02:51;;;;;;;17.55;7.93;;;;;;;4.71;85.07;100913.84;5069820;28;20063;-69
2020/12/21 20:05:16;;;;;;;19.20;6.63;;;;;;;4.74;85.08;100900.38;5070856;28;20548;-69
2020/12/21 20:07:42;;;;;;;9.90;6.13;;;;;;;4.71;84.99;100897.16;5073260;28;20058;-69
2020/12/21 20:10:08;;;;;;;14.30;6.43;;;;;;;4.74;85.06;100883.69;5057210;28;20354;-69
2020/12/21 20:12:41;;;;;;;12.80;6.20;;;;;;;4.72;85.13;100882.97;5074009;28;20432;-69
2020/12/21 20:15:08;;;;;;;15.32;5.63;;;;;;;4.73;84.92;100872.25;5074595;28;20033;-69
2020/12/21 20:17:33;;;;;;;11.57;5.57;;;;;;;4.73;84.99;100881.97;5073437;28;20694;-69
2020/12/21 20:19:58;;;;;;;12.40;6.47;;;;;;;4.76;84.71;100892.34;5074706;28;20132;-69
2020/12/21 20:22:24;;;;;;;18.40;6.27;;;;;;;4.79;84.66;100892.09;5074743;28;20111;-69
2020/12/21 20:24:49;;;;;;;13.77;5.47;;;;;;;4.82;84.64;100903.28;5073576;28;20363;-69
2020/12/21 20:27:14;;;;;;;11.20;5.70;;;;;;;4.81;84.73;100887.53;5073494;28;20469;-69
2020/12/21 20:29:40;;;;;;;13.70;5.97;;;;;;;4.83;84.59;100890.88;5073359;28;20488;-69
2020/12/21 20:32:05;;;;;;;11.00;5.20;;;;;;;4.78;84.61;100879.84;5073636;28;20040;-69
2020/12/21 20:34:31;;;;;;;10.80;5.83;;;;;;;4.81;84.74;100884.88;5073464;28;20064;-69
2020/12/21 20:36:57;;;;;;;12.05;6.15;;;;;;;4.77;84.74;100871.03;5073210;28;20141;-69
2020/12/21 20:39:26;;;;;;;14.20;5.67;;;;;;;4.76;84.83;100858.78;5074438;28;20462;-69
2020/12/21 20:41:55;;;;;;;8.82;5.68;;;;;;;4.79;84.86;100844.47;5073305;28;20375;-69
2020/12/21 20:44:21;;;;;;;10.05;5.30;;;;;;;4.76;84.81;100824.41;5074083;28;20525;-69
2020/12/21 20:46:46;;;;;;;15.23;6.22;;;;;;;4.79;84.91;100818.03;5073833;28;20127;-69
2020/12/21 20:49:11;;;;;;;12.03;5.50;;;;;;;4.79;84.96;100812.72;5074023;28;20039;-69